Time;durP1;ratioP1;P1;durP2;ratioP2;P2;SDS_P1;SDS_P2;PMS_P1;PMS_P2;Temp;Humidity;BMP_temperature;BMP_pressure;BME280_temperature;BME280_humidity;BME280_pressure;Samples;Min_cycle;Max_cycle;Signal;HPM_P1;HPM_P2
2021/09/17 00:01:42;;;;;;;;;;;16.30;99.90;;;;;;4898836;29;19947;-74
2021/09/17 00:04:08;;;;;;;;;;;16.30;99.90;;;;;;4898082;29;20376;-73
2021/09/17 00:06:33;;;;;;;;;;;16.30;99.90;;;;;;4892708;29;20411;-73
2021/09/17 00:08:59;;;;;;;;;;;16.30;99.90;;;;;;4888605;29;20467;-72
2021/09/17 00:11:25;;;;;;;;;;;16.30;99.90;;;;;;4895356;29;19914;-73
2021/09/17 00:13:50;;;;;;;;;;;16.30;99.90;;;;;;4897910;29;19918;-73
2021/09/17 00:16:16;;;;;;;;;;;16.30;99.90;;;;;;4895812;29;19923;-73
2021/09/17 00:18:41;;;;;;;;;;;16.40;99.90;;;;;;4912591;29;19911;-73
2021/09/17 00:21:07;;;;;;;;;;;16.40;99.90;;;;;;4897347;29;19908;-72
2021/09/17 00:23:33;;;;;;;;;;;16.40;99.90;;;;;;4898433;29;19915;-73
2021/09/17 00:25:59;;;;;;;;;;;16.40;99.90;;;;;;4897872;29;20356;-72
2021/09/17 00:28:24;;;;;;;;;;;16.40;99.90;;;;;;4912002;29;19918;-73
2021/09/17 00:30:50;;;;;;;;;;;16.40;99.90;;;;;;4896023;29;19936;-72
2021/09/17 00:33:15;;;;;;;;;;;16.40;99.90;;;;;;4881703;29;19922;-72
2021/09/17 00:35:41;;;;;;;;;;;16.40;99.90;;;;;;4898327;29;20357;-72
2021/09/17 00:38:07;;;;;;;;;;;16.40;99.90;;;;;;4897763;29;19908;-72
2021/09/17 00:40:32;;;;;;;;;;;16.40;99.90;;;;;;4899992;29;19911;-73
2021/09/17 00:42:58;;;;;;;;;;;16.40;99.90;;;;;;4893637;29;19974;-73
2021/09/17 00:45:24;;;;;;;;;;;16.40;99.90;;;;;;4899315;29;19911;-72
2021/09/17 00:47:50;;;;;;;;;;;16.40;99.90;;;;;;4899650;29;19911;-72
2021/09/17 00:50:17;;;;;;;;;;;16.50;99.90;;;;;;4898698;29;20376;-71
2021/09/17 00:52:43;;;;;;;;;;;16.50;99.90;;;;;;4898124;29;19916;-71
2021/09/17 00:55:09;;;;;;;;;;;16.60;99.90;;;;;;4887738;29;19915;-71
2021/09/17 00:57:35;;;;;;;;;;;16.60;99.90;;;;;;4900103;29;19915;-72
2021/09/17 01:00:00;;;;;;;;;;;16.50;99.90;;;;;;4900059;29;19912;-72
2021/09/17 01:02:26;;;;;;;;;;;16.50;99.90;;;;;;4897956;29;19915;-72
2021/09/17 01:04:52;;;;;;;;;;;16.50;99.90;;;;;;4898501;29;19919;-72
2021/09/17 01:07:17;;;;;;;;;;;16.50;99.90;;;;;;4898326;29;20320;-72
2021/09/17 01:09:43;;;;;;;;;;;16.50;99.90;;;;;;4899274;29;19907;-72
2021/09/17 01:12:09;;;;;;;;;;;16.60;99.90;;;;;;4896424;29;19919;-73
2021/09/17 01:14:35;;;;;;;;;;;16.60;99.90;;;;;;4888985;29;20011;-72
2021/09/17 01:17:02;;;;;;;;;;;16.60;99.90;;;;;;4898093;29;20420;-71
2021/09/17 01:19:28;;;;;;;;;;;16.60;99.90;;;;;;4897535;29;20002;-72
2021/09/17 01:22:00;;;;;;;;;;;16.60;99.90;;;;;;4895869;29;20349;-72
2021/09/17 01:24:27;;;;;;;;;;;16.60;99.90;;;;;;4912252;29;20002;-72
2021/09/17 01:26:52;;;;;;;;;;;16.60;99.90;;;;;;4897482;29;19911;-72
2021/09/17 01:29:18;;;;;;;;;;;16.60;99.90;;;;;;4895373;29;19935;-71
2021/09/17 01:31:43;;;;;;;;;;;16.70;99.90;;;;;;4897736;29;19919;-72
2021/09/17 01:34:10;;;;;;;;;;;16.70;99.90;;;;;;4899256;29;19967;-72
2021/09/17 01:36:35;;;;;;;;;;;16.70;99.90;;;;;;4899448;29;19919;-71
2021/09/17 01:39:03;;;;;;;;;;;16.70;99.90;;;;;;4889072;29;20030;-71
2021/09/17 01:41:29;;;;;;;;;;;16.70;99.90;;;;;;4901181;29;19908;-71
2021/09/17 01:43:54;;;;;;;;;;;16.70;99.90;;;;;;4900762;29;19971;-72
2021/09/17 01:46:20;;;;;;;;;;;16.70;99.90;;;;;;4900815;29;19918;-72
2021/09/17 01:48:47;;;;;;;;;;;16.70;99.90;;;;;;4900118;29;19915;-72
2021/09/17 01:51:13;;;;;;;;;;;16.70;99.90;;;;;;4900683;29;19911;-72
2021/09/17 01:53:38;;;;;;;;;;;16.70;99.90;;;;;;4899561;29;19926;-72
2021/09/17 01:56:04;;;;;;;;;;;16.70;99.90;;;;;;4900784;29;19918;-72
2021/09/17 01:58:30;;;;;;;;;;;16.70;99.90;;;;;;4900180;29;19911;-71
2021/09/17 02:00:55;;;;;;;;;;;16.70;99.90;;;;;;4891713;29;19922;-72
2021/09/17 02:03:21;;;;;;;;;;;16.70;99.90;;;;;;4900606;29;19911;-71
2021/09/17 02:05:47;;;;;;;;;;;16.70;99.90;;;;;;4900629;29;20277;-71
2021/09/17 02:08:12;;;;;;;;;;;16.70;99.90;;;;;;4914693;29;19920;-72
2021/09/17 02:10:38;;;;;;;;;;;16.70;99.90;;;;;;4898807;29;20440;-72
2021/09/17 02:13:04;;;;;;;;;;;16.70;99.90;;;;;;4895415;29;19952;-72
2021/09/17 02:15:30;;;;;;;;;;;16.70;99.90;;;;;;4886743;29;19967;-74
2021/09/17 02:17:55;;;;;;;;;;;16.70;99.90;;;;;;4900119;29;19919;-72
2021/09/17 02:20:21;;;;;;;;;;;16.70;99.90;;;;;;4900150;29;20149;-71
2021/09/17 02:22:46;;;;;;;;;;;16.70;99.90;;;;;;4898516;29;19938;-71
2021/09/17 02:25:12;;;;;;;;;;;16.70;99.90;;;;;;4898318;29;19967;-72
2021/09/17 02:27:38;;;;;;;;;;;16.70;99.90;;;;;;4899883;29;20383;-72
2021/09/17 02:30:05;;;;;;;;;;;16.70;99.90;;;;;;4897780;29;20270;-72
2021/09/17 02:32:30;;;;;;;;;;;16.70;99.90;;;;;;4897868;29;19919;-73
2021/09/17 02:34:56;;;;;;;;;;;16.70;99.90;;;;;;4890759;29;19915;-72
2021/09/17 02:37:21;;;;;;;;;;;16.70;99.90;;;;;;4898342;29;19911;-72
2021/09/17 02:39:47;;;;;;;;;;;16.70;99.90;;;;;;4899805;29;19912;-72
2021/09/17 02:42:13;;;;;;;;;;;16.70;99.90;;;;;;4899033;29;19935;-72
2021/09/17 02:44:38;;;;;;;;;;;16.70;99.90;;;;;;4884674;29;19911;-72
2021/09/17 02:47:04;;;;;;;;;;;16.70;99.90;;;;;;4900187;29;19912;-73
2021/09/17 02:49:33;;;;;;;;;;;16.70;99.90;;;;;;4897934;29;19911;-73
2021/09/17 02:51:59;;;;;;;;;;;16.80;99.90;;;;;;4914071;29;19911;-72
2021/09/17 02:54:24;;;;;;;;;;;16.80;99.90;;;;;;4898407;29;20399;-73
2021/09/17 02:56:50;;;;;;;;;;;16.80;99.90;;;;;;4899484;29;19912;-72
2021/09/17 02:59:15;;;;;;;;;;;16.80;99.90;;;;;;4908218;29;20449;-71
2021/09/17 03:01:41;;;;;;;;;;;16.80;99.90;;;;;;4895838;29;19911;-71
2021/09/17 03:04:07;;;;;;;;;;;16.90;99.90;;;;;;4898672;29;19976;-72
2021/09/17 03:06:32;;;;;;;;;;;16.80;99.90;;;;;;4898706;29;20022;-72
2021/09/17 03:08:58;;;;;;;;;;;16.90;99.90;;;;;;4898946;29;19915;-72
2021/09/17 03:11:24;;;;;;;;;;;16.90;99.90;;;;;;4898856;29;20272;-72
2021/09/17 03:13:49;;;;;;;;;;;16.90;99.90;;;;;;4897845;29;19915;-72
2021/09/17 03:16:15;;;;;;;;;;;16.90;99.90;;;;;;4899176;29;19911;-72
2021/09/17 03:18:41;;;;;;;;;;;16.90;99.90;;;;;;4899253;29;19919;-72
2021/09/17 03:21:06;;;;;;;;;;;17.00;99.90;;;;;;4913482;29;19918;-72
2021/09/17 03:23:32;;;;;;;;;;;17.00;99.90;;;;;;4897082;29;19915;-71
2021/09/17 03:25:58;;;;;;;;;;;17.00;99.90;;;;;;4899117;29;19919;-71
2021/09/17 03:28:23;;;;;;;;;;;17.00;99.90;;;;;;4898146;29;19998;-71
2021/09/17 03:30:49;;;;;;;;;;;17.00;99.90;;;;;;4887222;29;20341;-72
2021/09/17 03:33:15;;;;;;;;;;;17.10;99.90;;;;;;4898851;29;20412;-71
2021/09/17 03:35:42;;;;;;;;;;;17.10;99.90;;;;;;4898320;29;19920;-71
2021/09/17 03:38:07;;;;;;;;;;;17.00;99.90;;;;;;4913208;29;20365;-72
2021/09/17 03:40:34;;;;;;;;;;;17.00;99.90;;;;;;4897329;29;19994;-72
2021/09/17 03:42:59;;;;;;;;;;;17.00;99.90;;;;;;4890189;29;20288;-72
2021/09/17 03:45:25;;;;;;;;;;;17.00;99.90;;;;;;4898625;29;19995;-71
2021/09/17 03:47:51;;;;;;;;;;;17.00;99.90;;;;;;4912946;29;19939;-71
2021/09/17 03:50:16;;;;;;;;;;;17.00;99.90;;;;;;4912982;29;19941;-71
2021/09/17 03:52:42;;;;;;;;;;;17.00;99.90;;;;;;4898207;29;19912;-71
2021/09/17 03:55:08;;;;;;;;;;;17.00;99.90;;;;;;4898445;29;20014;-71
2021/09/17 03:57:34;;;;;;;;;;;17.00;99.90;;;;;;4897063;29;19912;-74
2021/09/17 03:59:59;;;;;;;;;;;17.00;99.90;;;;;;4898382;29;19963;-73
2021/09/17 04:02:25;;;;;;;;;;;17.00;99.90;;;;;;4897160;29;19915;-73
2021/09/17 04:04:50;;;;;;;;;;;17.00;99.90;;;;;;4897674;29;19959;-73
2021/09/17 04:07:16;;;;;;;;;;;17.00;99.90;;;;;;4897995;29;20293;-72
2021/09/17 04:09:41;;;;;;;;;;;17.00;99.90;;;;;;4897530;29;19998;-73
2021/09/17 04:12:07;;;;;;;;;;;17.00;99.90;;;;;;4898284;29;19994;-73
2021/09/17 04:14:33;;;;;;;;;;;17.10;99.90;;;;;;4895874;29;20436;-73
2021/09/17 04:16:58;;;;;;;;;;;17.10;99.90;;;;;;4896771;29;20337;-73
2021/09/17 04:19:24;;;;;;;;;;;17.10;99.90;;;;;;4898169;29;19949;-73
2021/09/17 04:21:49;;;;;;;;;;;17.10;99.90;;;;;;4898426;29;20427;-73
2021/09/17 04:24:15;;;;;;;;;;;17.10;99.90;;;;;;4910556;29;19923;-73
2021/09/17 04:26:41;;;;;;;;;;;17.10;99.90;;;;;;4897723;29;19912;-73
2021/09/17 04:29:06;;;;;;;;;;;17.10;99.90;;;;;;4897019;29;20572;-71
2021/09/17 04:31:32;;;;;;;;;;;17.00;99.90;;;;;;4898251;29;19911;-71
2021/09/17 04:33:58;;;;;;;;;;;17.10;99.90;;;;;;4896617;29;19915;-72
2021/09/17 04:36:23;;;;;;;;;;;17.10;99.90;;;;;;4897679;29;19912;-71
2021/09/17 04:38:49;;;;;;;;;;;17.00;99.90;;;;;;4911803;29;19916;-72
2021/09/17 04:41:15;;;;;;;;;;;17.00;99.90;;;;;;4897669;29;19912;-74
2021/09/17 04:43:40;;;;;;;;;;;17.00;99.90;;;;;;4898163;29;20300;-72
2021/09/17 04:46:06;;;;;;;;;;;17.10;99.90;;;;;;4897861;29;19916;-71
2021/09/17 04:48:32;;;;;;;;;;;17.10;99.90;;;;;;4896465;29;19918;-74
2021/09/17 04:50:57;;;;;;;;;;;17.10;99.90;;;;;;4897958;29;19918;-73
2021/09/17 04:53:24;;;;;;;;;;;17.10;99.90;;;;;;4897740;29;19918;-73
2021/09/17 04:55:50;;;;;;;;;;;17.00;99.90;;;;;;4897955;29;19911;-73
2021/09/17 04:58:16;;;;;;;;;;;17.10;99.90;;;;;;4897245;29;19963;-73
2021/09/17 05:00:42;;;;;;;;;;;17.10;99.90;;;;;;4896803;29;19912;-73
2021/09/17 05:03:07;;;;;;;;;;;17.10;99.90;;;;;;4912052;29;19926;-73
2021/09/17 05:05:33;;;;;;;;;;;17.10;99.90;;;;;;4897646;29;19918;-74
2021/09/17 05:07:59;;;;;;;;;;;17.10;99.90;;;;;;4898303;29;19927;-73
2021/09/17 05:10:24;;;;;;;;;;;17.10;99.90;;;;;;4899637;29;20383;-74
2021/09/17 05:12:50;;;;;;;;;;;17.10;99.90;;;;;;4901426;29;20347;-73
2021/09/17 05:15:16;;;;;;;;;;;17.10;99.90;;;;;;4901261;29;19915;-73
2021/09/17 05:17:41;;;;;;;;;;;17.10;99.90;;;;;;4893983;29;19912;-73
2021/09/17 05:20:08;;;;;;;;;;;17.00;99.90;;;;;;4897216;29;19919;-72
2021/09/17 05:22:33;;;;;;;;;;;17.00;99.90;;;;;;4900091;29;19923;-73
2021/09/17 05:24:59;;;;;;;;;;;17.00;99.90;;;;;;4900826;29;19917;-73
2021/09/17 05:27:25;;;;;;;;;;;17.00;99.90;;;;;;4901329;29;19975;-72
2021/09/17 05:29:52;;;;;;;;;;;17.10;99.90;;;;;;4900204;29;19918;-73
2021/09/17 05:32:18;;;;;;;;;;;17.00;99.90;;;;;;4900845;29;19935;-72
2021/09/17 05:34:44;;;;;;;;;;;17.00;99.90;;;;;;4892591;29;20254;-73
2021/09/17 05:37:09;;;;;;;;;;;17.00;99.90;;;;;;4903385;29;19963;-74
2021/09/17 05:39:35;;;;;;;;;;;17.00;99.90;;;;;;4900759;29;19912;-73
2021/09/17 05:42:00;;;;;;;;;;;17.00;99.90;;;;;;4900922;29;20278;-73
2021/09/17 05:44:27;;;;;;;;;;;17.00;99.90;;;;;;4893860;29;20329;-73
2021/09/17 05:46:52;;;;;;;;;;;17.00;99.90;;;;;;4887964;29;19911;-72
2021/09/17 05:49:18;;;;;;;;;;;17.00;99.90;;;;;;4900360;29;19933;-72
2021/09/17 05:51:44;;;;;;;;;;;17.00;99.90;;;;;;4900369;29;19919;-72
2021/09/17 05:54:09;;;;;;;;;;;17.10;99.90;;;;;;4897540;29;19946;-72
2021/09/17 05:56:35;;;;;;;;;;;17.10;99.90;;;;;;4900285;29;19934;-73
2021/09/17 05:59:00;;;;;;;;;;;17.10;99.90;;;;;;4899270;29;19907;-72
2021/09/17 06:01:26;;;;;;;;;;;17.10;99.90;;;;;;4900410;29;19915;-72
2021/09/17 06:03:51;;;;;;;;;;;17.10;99.90;;;;;;4900383;29;20269;-73
2021/09/17 06:06:18;;;;;;;;;;;17.10;99.90;;;;;;4900437;29;19967;-72
2021/09/17 06:08:44;;;;;;;;;;;17.10;99.90;;;;;;4899754;29;20361;-73
2021/09/17 06:11:10;;;;;;;;;;;17.10;99.90;;;;;;4900388;29;19940;-72
2021/09/17 06:13:35;;;;;;;;;;;17.20;99.90;;;;;;4899400;29;19963;-74
2021/09/17 06:16:01;;;;;;;;;;;17.20;99.90;;;;;;4900078;29;20369;-72
2021/09/17 06:18:27;;;;;;;;;;;17.20;99.90;;;;;;4898925;29;20010;-72
2021/09/17 06:20:52;;;;;;;;;;;17.30;99.90;;;;;;4900618;29;19919;-72
2021/09/17 06:23:18;;;;;;;;;;;17.20;99.90;;;;;;4916217;29;20404;-72
2021/09/17 06:25:45;;;;;;;;;;;17.20;99.90;;;;;;4914650;29;20400;-72
2021/09/17 06:28:11;;;;;;;;;;;17.20;99.90;;;;;;4914111;29;19964;-73
2021/09/17 06:30:37;;;;;;;;;;;17.30;99.90;;;;;;4900098;29;19915;-73
2021/09/17 06:33:02;;;;;;;;;;;17.20;99.90;;;;;;4898866;29;19925;-73
2021/09/17 06:35:28;;;;;;;;;;;17.30;99.90;;;;;;4900032;29;19934;-73
2021/09/17 06:37:54;;;;;;;;;;;17.30;99.90;;;;;;4899782;29;19912;-72
2021/09/17 06:40:21;;;;;;;;;;;17.30;99.90;;;;;;4899885;29;19918;-73
2021/09/17 06:42:47;;;;;;;;;;;17.40;99.90;;;;;;4899349;29;19916;-73
2021/09/17 06:45:14;;;;;;;;;;;17.40;99.90;;;;;;4899945;29;19912;-73
2021/09/17 06:47:54;;;;;;;;;;;17.40;99.90;;;;;;4898294;29;19998;-73
2021/09/17 06:50:20;;;;;;;;;;;17.50;99.90;;;;;;4899624;29;19923;-73
2021/09/17 06:52:49;;;;;;;;;;;17.50;99.90;;;;;;4899487;29;19915;-73
2021/09/17 06:55:16;;;;;;;;;;;17.50;99.90;;;;;;4899668;29;19911;-73
2021/09/17 06:57:51;;;;;;;;;;;17.60;99.90;;;;;;4899331;29;19966;-73
2021/09/17 07:00:18;;;;;;;;;;;17.60;99.90;;;;;;4898981;29;20376;-73
2021/09/17 07:02:44;;;;;;;;;;;17.70;99.90;;;;;;4899734;29;19919;-73
2021/09/17 07:05:10;;;;;;;;;;;17.70;99.90;;;;;;4898017;29;19919;-73
2021/09/17 07:07:36;;;;;;;;;;;17.70;99.90;;;;;;4898787;29;20381;-73
2021/09/17 07:10:03;;;;;;;;;;;17.80;99.90;;;;;;4898875;29;19911;-73
2021/09/17 07:12:29;;;;;;;;;;;17.80;99.90;;;;;;4897819;29;19916;-73
2021/09/17 07:14:54;;;;;;;;;;;17.90;99.90;;;;;;4891295;29;19919;-73
2021/09/17 07:17:20;;;;;;;;;;;18.00;99.90;;;;;;4899496;29;19918;-75
2021/09/17 07:19:45;;;;;;;;;;;18.00;99.90;;;;;;4888055;29;20010;-73
2021/09/17 07:22:11;;;;;;;;;;;18.10;99.90;;;;;;4897499;29;20353;-74
2021/09/17 07:24:37;;;;;;;;;;;18.20;99.90;;;;;;4894158;29;19915;-73
2021/09/17 07:27:03;;;;;;;;;;;18.20;99.90;;;;;;4914580;29;19912;-74
2021/09/17 07:29:28;;;;;;;;;;;18.30;99.90;;;;;;4899887;29;19919;-74
2021/09/17 07:31:54;;;;;;;;;;;18.30;99.90;;;;;;4900264;29;20284;-74
2021/09/17 07:34:20;;;;;;;;;;;18.40;99.90;;;;;;4898957;29;19911;-73
2021/09/17 07:36:45;;;;;;;;;;;18.40;99.90;;;;;;4893078;29;20418;-74
2021/09/17 07:39:11;;;;;;;;;;;18.50;99.90;;;;;;4898380;29;19911;-73
2021/09/17 07:41:36;;;;;;;;;;;18.50;99.90;;;;;;4899579;29;19918;-72
2021/09/17 07:44:03;;;;;;;;;;;18.60;99.90;;;;;;4900179;29;19922;-73
2021/09/17 07:46:28;;;;;;;;;;;18.60;99.90;;;;;;4898754;29;19911;-73
2021/09/17 07:48:54;;;;;;;;;;;18.60;99.90;;;;;;4897493;29;19911;-73
2021/09/17 07:51:19;;;;;;;;;;;18.70;99.90;;;;;;4913946;29;19911;-73
2021/09/17 07:53:45;;;;;;;;;;;18.80;99.90;;;;;;4898238;29;20300;-73
2021/09/17 07:56:11;;;;;;;;;;;18.90;99.90;;;;;;4906712;29;19911;-73
2021/09/17 07:58:36;;;;;;;;;;;19.00;99.90;;;;;;4927818;29;19915;-73
2021/09/17 08:01:02;;;;;;;;;;;19.00;99.90;;;;;;4917783;29;19918;-73
2021/09/17 08:03:32;;;;;;;;;;;19.00;99.90;;;;;;4917248;29;20000;-73
2021/09/17 08:05:58;;;;;;;;;;;19.10;99.90;;;;;;4918939;29;19918;-73
2021/09/17 08:08:24;;;;;;;;;;;19.10;99.90;;;;;;4932510;29;19966;-74
2021/09/17 08:10:49;;;;;;;;;;;19.10;99.90;;;;;;4919407;29;19919;-73
2021/09/17 08:13:15;;;;;;;;;;;19.10;99.90;;;;;;4920438;29;19926;-74
2021/09/17 08:15:40;;;;;;;;;;;19.20;99.90;;;;;;4919503;29;19915;-74
2021/09/17 08:18:06;;;;;;;;;;;19.20;99.90;;;;;;4920368;29;19900;-73
2021/09/17 08:20:32;;;;;;;;;;;19.20;99.90;;;;;;4920702;29;19916;-73
2021/09/17 08:22:57;;;;;;;;;;;19.20;99.90;;;;;;4920327;29;19923;-73
2021/09/17 08:25:23;;;;;;;;;;;19.20;99.90;;;;;;4919335;29;19923;-73
2021/09/17 08:27:48;;;;;;;;;;;19.30;99.90;;;;;;4919274;29;19928;-73
2021/09/17 08:30:14;;;;;;;;;;;19.20;99.90;;;;;;4933879;29;19962;-74
2021/09/17 08:32:40;;;;;;;;;;;19.40;99.90;;;;;;4914860;29;19912;-74
2021/09/17 08:35:09;;;;;;;;;;;19.50;99.90;;;;;;4906682;29;19945;-73
2021/09/17 08:37:35;;;;;;;;;;;19.50;99.90;;;;;;4903012;29;20344;-73
2021/09/17 08:40:00;;;;;;;;;;;19.60;99.90;;;;;;4901299;29;19955;-73
2021/09/17 08:42:26;;;;;;;;;;;19.60;99.90;;;;;;4915413;29;20357;-73
2021/09/17 08:44:51;;;;;;;;;;;19.60;99.90;;;;;;4901354;29;20010;-74
2021/09/17 08:47:18;;;;;;;;;;;19.70;99.90;;;;;;4901479;29;19990;-73
2021/09/17 08:49:44;;;;;;;;;;;19.80;99.90;;;;;;4901635;29;19911;-73
2021/09/17 08:52:09;;;;;;;;;;;19.80;99.90;;;;;;4901002;29;19930;-73
2021/09/17 08:54:35;;;;;;;;;;;19.70;99.90;;;;;;4899801;29;19916;-74
2021/09/17 08:57:01;;;;;;;;;;;19.70;99.90;;;;;;4914690;29;19908;-74
2021/09/17 08:59:26;;;;;;;;;;;19.60;99.90;;;;;;4898934;29;20002;-74
2021/09/17 09:01:52;;;;;;;;;;;19.60;99.90;;;;;;4897463;29;19982;-74
2021/09/17 09:04:27;;;;;;;;;;;19.70;99.90;;;;;;4896810;29;19915;-74
2021/09/17 09:06:53;;;;;;;;;;;19.70;99.90;;;;;;4902676;29;19965;-73
2021/09/17 09:09:20;;;;;;;;;;;19.70;99.90;;;;;;4903634;29;20368;-74
2021/09/17 09:11:50;;;;;;;;;;;19.80;99.90;;;;;;4889834;29;19998;-74
2021/09/17 09:14:16;;;;;;;;;;;19.80;99.90;;;;;;4897105;29;19915;-74
2021/09/17 09:16:43;;;;;;;;;;;19.80;99.90;;;;;;4896192;29;19907;-74
2021/09/17 09:19:19;;;;;;;;;;;19.90;99.90;;;;;;4895857;29;19919;-73
2021/09/17 09:21:45;;;;;;;;;;;19.90;99.90;;;;;;4897853;29;19911;-73
2021/09/17 09:24:12;;;;;;;;;;;20.00;99.90;;;;;;4897121;29;19915;-74
2021/09/17 09:26:39;;;;;;;;;;;19.90;99.90;;;;;;4893370;29;20003;-74
2021/09/17 09:29:05;;;;;;;;;;;20.00;99.90;;;;;;4894153;29;19963;-74
2021/09/17 09:31:40;;;;;;;;;;;20.10;99.90;;;;;;4896762;29;19915;-74
2021/09/17 09:34:06;;;;;;;;;;;20.10;99.90;;;;;;4892048;29;19915;-73
2021/09/17 09:36:35;;;;;;;;;;;20.10;99.90;;;;;;4904299;29;19966;-74
2021/09/17 09:39:02;;;;;;;;;;;20.20;99.90;;;;;;4889033;29;19981;-74
2021/09/17 09:41:29;;;;;;;;;;;20.20;99.90;;;;;;4889350;29;19911;-74
2021/09/17 09:43:54;;;;;;;;;;;20.40;99.90;;;;;;4902068;29;19915;-73
2021/09/17 09:46:23;;;;;;;;;;;20.70;99.90;;;;;;4888826;29;20352;-74
2021/09/17 09:49:05;;;;;;;;;;;20.80;99.90;;;;;;4889386;29;20360;-73
2021/09/17 09:51:30;;;;;;;;;;;21.00;99.90;;;;;;4889302;29;19917;-75
2021/09/17 09:53:57;;;;;;;;;;;21.20;99.90;;;;;;4907616;29;19911;-75
2021/09/17 09:56:23;;;;;;;;;;;21.30;99.90;;;;;;4891587;29;20368;-74
2021/09/17 09:58:49;;;;;;;;;;;21.50;99.90;;;;;;4894381;29;19906;-75
2021/09/17 10:01:17;;;;;;;;;;;21.60;99.90;;;;;;4894915;29;20326;-75
2021/09/17 10:03:43;;;;;;;;;;;21.60;99.90;;;;;;4893216;29;19921;-75
2021/09/17 10:06:09;;;;;;;;;;;21.80;99.90;;;;;;4893071;29;20022;-75
2021/09/17 10:08:35;;;;;;;;;;;21.90;99.90;;;;;;4892670;29;19923;-76
2021/09/17 10:11:01;;;;;;;;;;;21.90;99.90;;;;;;4906184;29;20303;-74
2021/09/17 10:13:27;;;;;;;;;;;21.90;99.90;;;;;;4896768;29;19939;-75
2021/09/17 10:15:52;;;;;;;;;;;21.80;99.90;;;;;;4913903;29;20356;-74
2021/09/17 10:18:18;;;;;;;;;;;21.80;99.90;;;;;;4900378;29;19945;-74
2021/09/17 10:20:45;;;;;;;;;;;21.70;99.90;;;;;;4899560;29;19911;-74
2021/09/17 10:23:30;;;;;;;;;;;21.70;99.90;;;;;;4899797;29;19915;-73
2021/09/17 10:26:04;;;;;;;;;;;21.60;99.90;;;;;;4896345;29;19915;-74
2021/09/17 10:28:30;;;;;;;;;;;21.50;99.90;;;;;;4893242;29;20367;-73
2021/09/17 10:31:13;;;;;;;;;;;21.50;99.90;;;;;;4906973;29;20288;-74
2021/09/17 10:33:38;;;;;;;;;;;21.60;99.90;;;;;;4894338;29;20373;-73
2021/09/17 10:36:04;;;;;;;;;;;21.80;99.90;;;;;;4893008;29;19955;-73
2021/09/17 10:38:31;;;;;;;;;;;22.00;99.90;;;;;;4895895;29;19998;-74
2021/09/17 10:40:58;;;;;;;;;;;22.20;99.90;;;;;;4897759;29;20014;-73
2021/09/17 10:43:29;;;;;;;;;;;22.20;99.90;;;;;;4909956;29;20010;-72
2021/09/17 10:45:57;;;;;;;;;;;22.40;99.90;;;;;;4909687;29;19920;-73
2021/09/17 10:48:26;;;;;;;;;;;22.40;99.90;;;;;;4893464;29;20006;-75
2021/09/17 10:50:53;;;;;;;;;;;22.60;99.90;;;;;;4897806;29;19912;-74
2021/09/17 10:53:38;;;;;;;;;;;22.70;99.90;;;;;;4912336;29;20017;-77
2021/09/17 10:56:03;;;;;;;;;;;22.80;99.90;;;;;;4908071;29;19912;-75
2021/09/17 10:58:33;;;;;;;;;;;22.80;99.90;;;;;;4897753;29;19938;-74
2021/09/17 11:01:03;;;;;;;;;;;22.60;99.90;;;;;;4890157;29;20002;-75
2021/09/17 11:03:41;;;;;;;;;;;22.50;99.90;;;;;;4891123;29;19967;-75
2021/09/17 11:06:19;;;;;;;;;;;22.60;99.90;;;;;;4890908;29;19911;-74
2021/09/17 11:08:51;;;;;;;;;;;22.50;99.90;;;;;;4891112;29;20025;-74
2021/09/17 11:11:29;;;;;;;;;;;22.60;99.90;;;;;;4890932;29;19995;-73
2021/09/17 11:13:56;;;;;;;;;;;22.70;99.90;;;;;;4891402;29;21450;-74
2021/09/17 11:16:22;;;;;;;;;;;22.80;99.90;;;;;;4891755;29;19919;-73
2021/09/17 11:19:04;;;;;;;;;;;22.90;99.90;;;;;;4891892;29;20008;-74
2021/09/17 11:21:31;;;;;;;;;;;22.90;99.90;;;;;;4891508;29;19912;-73
2021/09/17 11:23:57;;;;;;;;;;;23.10;99.90;;;;;;4892311;29;19985;-74
2021/09/17 11:26:24;;;;;;;;;;;23.10;99.90;;;;;;4906694;29;19911;-75
2021/09/17 11:29:02;;;;;;;;;;;23.10;99.90;;;;;;4895198;29;19911;-74
2021/09/17 11:31:32;;;;;;;;;;;23.10;99.90;;;;;;4897346;29;19958;-73
2021/09/17 11:34:04;;;;;;;;;;;23.30;99.90;;;;;;4897818;29;19959;-73
2021/09/17 11:36:34;;;;;;;;;;;23.20;99.90;;;;;;4912477;29;19911;-75
2021/09/17 11:39:23;;;;;;;;;;;23.10;99.90;;;;;;4899026;29;19914;-73
2021/09/17 11:41:56;;;;;;;;;;;23.10;99.90;;;;;;4886877;29;20383;-73
2021/09/17 11:44:39;;;;;;;;;;;23.20;99.90;;;;;;4898392;29;19912;-72
2021/09/17 11:47:05;;;;;;;;;;;23.20;99.90;;;;;;4898783;29;20291;-73
2021/09/17 11:49:32;;;;;;;;;;;23.10;99.90;;;;;;4896456;29;20365;-73
2021/09/17 11:52:02;;;;;;;;;;;23.10;99.90;;;;;;4896735;29;19915;-72
2021/09/17 11:54:28;;;;;;;;;;;23.00;99.90;;;;;;4898417;29;19962;-75
2021/09/17 11:56:58;;;;;;;;;;;22.90;99.90;;;;;;4909787;29;20325;-75
2021/09/17 11:59:30;;;;;;;;;;;22.80;99.90;;;;;;4896076;29;19911;-74
2021/09/17 12:02:14;;;;;;;;;;;22.80;99.90;;;;;;4895246;29;19919;-73
2021/09/17 12:04:41;;;;;;;;;;;22.70;99.90;;;;;;4890867;29;19916;-75
2021/09/17 12:07:06;;;;;;;;;;;22.70;99.90;;;;;;4890212;29;19919;-74
2021/09/17 12:09:32;;;;;;;;;;;22.60;99.90;;;;;;4905074;29;19918;-75
2021/09/17 12:11:58;;;;;;;;;;;22.60;99.90;;;;;;4890659;29;19922;-76
2021/09/17 12:14:23;;;;;;;;;;;22.60;99.90;;;;;;4895990;29;19911;-74
2021/09/17 12:16:49;;;;;;;;;;;22.40;99.90;;;;;;4911314;29;19912;-73
2021/09/17 12:19:14;;;;;;;;;;;22.30;99.90;;;;;;4893695;29;19998;-74
2021/09/17 12:21:40;;;;;;;;;;;22.30;99.90;;;;;;4890723;29;19911;-73
2021/09/17 12:24:22;;;;;;;;;;;22.20;99.90;;;;;;4892002;29;19916;-74
2021/09/17 12:27:06;;;;;;;;;;;22.10;99.90;;;;;;4890860;29;20432;-73
2021/09/17 12:29:31;;;;;;;;;;;22.00;99.90;;;;;;4894202;29;20391;-74
2021/09/17 12:32:13;;;;;;;;;;;22.10;99.90;;;;;;4902622;29;19911;-73
2021/09/17 12:34:38;;;;;;;;;;;22.00;99.90;;;;;;4896517;29;20428;-73
2021/09/17 12:37:04;;;;;;;;;;;22.00;99.90;;;;;;4897138;29;20006;-73
2021/09/17 12:39:30;;;;;;;;;;;21.90;99.90;;;;;;4897443;29;19998;-73
2021/09/17 12:42:09;;;;;;;;;;;21.90;99.90;;;;;;4896855;29;19915;-73
2021/09/17 12:44:41;;;;;;;;;;;21.80;99.90;;;;;;4898281;29;19915;-73
2021/09/17 12:47:07;;;;;;;;;;;21.80;99.90;;;;;;4893355;29;19912;-72
2021/09/17 12:49:33;;;;;;;;;;;21.70;99.90;;;;;;4895956;29;19927;-73
2021/09/17 12:52:02;;;;;;;;;;;21.70;99.90;;;;;;4894700;29;20001;-73
2021/09/17 12:54:34;;;;;;;;;;;21.50;99.90;;;;;;4907638;29;19940;-73
2021/09/17 12:57:15;;;;;;;;;;;21.50;99.90;;;;;;4896178;29;20318;-74
2021/09/17 12:59:58;;;;;;;;;;;21.60;99.90;;;;;;4897972;29;19911;-73
2021/09/17 13:02:23;;;;;;;;;;;21.60;99.90;;;;;;4895794;29;20355;-73
2021/09/17 13:05:02;;;;;;;;;;;21.60;99.90;;;;;;4895716;29;20002;-73
2021/09/17 13:07:27;;;;;;;;;;;21.60;99.90;;;;;;4893408;29;20014;-73
2021/09/17 13:09:53;;;;;;;;;;;21.50;99.90;;;;;;4907468;29;19952;-73
2021/09/17 13:12:19;;;;;;;;;;;21.40;99.90;;;;;;4895757;29;19911;-73
2021/09/17 13:14:44;;;;;;;;;;;21.40;99.90;;;;;;4911965;29;19911;-74
2021/09/17 13:17:10;;;;;;;;;;;21.40;99.90;;;;;;4895386;29;20001;-74
2021/09/17 13:19:35;;;;;;;;;;;21.50;99.90;;;;;;4890417;29;20011;-73
2021/09/17 13:22:01;;;;;;;;;;;21.50;99.90;;;;;;4893632;29;19911;-73
2021/09/17 13:24:27;;;;;;;;;;;21.50;99.90;;;;;;4895875;29;19915;-72
2021/09/17 13:26:53;;;;;;;;;;;21.30;99.90;;;;;;4897389;29;20404;-72
2021/09/17 13:29:18;;;;;;;;;;;21.10;99.90;;;;;;4900150;29;19936;-72
2021/09/17 13:31:44;;;;;;;;;;;21.00;99.90;;;;;;4899501;29;19966;-72
2021/09/17 13:34:09;;;;;;;;;;;20.90;99.90;;;;;;4898848;29;19911;-73
2021/09/17 13:36:35;;;;;;;;;;;20.80;99.90;;;;;;4899994;29;19970;-73
2021/09/17 13:39:01;;;;;;;;;;;20.80;99.90;;;;;;4899290;29;19980;-73
2021/09/17 13:41:26;;;;;;;;;;;20.70;99.90;;;;;;4914138;29;19911;-73
2021/09/17 13:43:52;;;;;;;;;;;20.60;99.90;;;;;;4900245;29;20336;-73
2021/09/17 13:46:17;;;;;;;;;;;20.60;99.90;;;;;;4898663;29;19918;-73
2021/09/17 13:48:43;;;;;;;;;;;20.60;99.90;;;;;;4898826;29;20005;-73
2021/09/17 13:51:09;;;;;;;;;;;20.70;99.90;;;;;;4900936;29;19912;-72
2021/09/17 13:53:34;;;;;;;;;;;20.70;99.90;;;;;;4916154;29;19922;-72
2021/09/17 13:56:00;;;;;;;;;;;20.70;99.90;;;;;;4900872;29;19955;-72
2021/09/17 13:58:26;;;;;;;;;;;20.80;99.90;;;;;;4900514;29;20361;-72
2021/09/17 14:00:52;;;;;;;;;;;20.80;99.90;;;;;;4899635;29;19918;-73
2021/09/17 14:03:18;;;;;;;;;;;20.90;99.90;;;;;;4902310;29;19915;-74
2021/09/17 14:05:44;;;;;;;;;;;20.90;99.90;;;;;;4897273;29;19919;-73
2021/09/17 14:08:09;;;;;;;;;;;20.80;99.90;;;;;;4893036;29;19944;-72
2021/09/17 14:10:35;;;;;;;;;;;20.70;99.90;;;;;;4913270;29;19915;-72
2021/09/17 14:13:01;;;;;;;;;;;20.60;99.90;;;;;;4897441;29;20305;-71
2021/09/17 14:15:26;;;;;;;;;;;20.60;99.90;;;;;;4897262;29;19915;-72